메인 페이지
METAR-TAF:

METAR-TAF

공항 :

부르가스, 불가리아

위도: 42-29N, 경도: 027-29E, 고도: 16m

현재 날씨관측

예보는 14분 전, 08:30시(UTC)에 발표되었습니다.
북북동14kt
온도 18°C
습도 56%
기압 1026 hPa
시정 10km 이상
고도 4600ft 상공 구름 보통

METAR: LBBG 200830Z 03014KT 9999 SCT046 18/09 Q1026 NOSIG

시각: 11:44 (08:44 UTC)

예보

예보는 3 시간 44분 전, 05:00시(UTC)에 발표되었습니다.
예보 대상 시간: 20일 06시부터 21일 06시까지 (UTC)
14kt
시정 10km 이상
고도 4500ft 상공 구름 많음
전환 중
20일 09시부터 20일 11시까지 (UTC)
동북동10kt
전환 중
20일 19시부터 20일 21시까지 (UTC)
10kt

TAF: LBBG 200500Z 2006/2106 01014KT 9999 BKN045 BECMG 2009/2011 07010KT BECMG 2019/2021 01010KT

4,000개 이상의 공항 관측 자료 및 예보 (METAR 및 TAF 보고).

지도상에서 검색 가능한 기상관측소가 노란 점과 빨간 점으로 표시되어 있습니다.

기상관측소 명을 보려면 표시 위로 마우스를 이동하세요.

날씨 관측과 예보를 보려면 클릭하세요.

지도 변경 : 확대하려면 엑스 표시가 있는 녹색 버튼, 축소하려면 빼기 표시가 있는 녹색 버튼, 다음 페이지의 지도를 보려면 녹색 화살표를 클릭하세요.


METAR-TAF: